Time;durP1;ratioP1;P1;durP2;ratioP2;P2;SDS_P1;SDS_P2;PMS_P1;PMS_P2;Temp;Humidity;BMP_temperature;BMP_pressure;BME280_temperature;BME280_humidity;BME280_pressure;Samples;Min_cycle;Max_cycle;Signal;HPM_P1;HPM_P2
2024/04/03 00:01:35;;;;;;;16.52;11.43;;;;;;;;;;5104568;28;20251;-48
2024/04/03 00:04:06;;;;;;;13.80;11.43;;;;;;;;;;5099693;28;20360;-41
2024/04/03 00:06:53;;;;;;;16.40;10.77;;;;;;;;;;5104779;28;20249;-43
2024/04/03 00:09:28;;;;;;;15.85;10.90;;;;;;;;;;5105956;28;20016;-48
2024/04/03 00:11:57;;;;;;;12.73;10.25;;;;;;;;;;5106132;28;20028;-39
2024/04/03 00:14:24;;;;;;;11.98;10.68;;;;;;;;;;5106129;28;20022;-44
2024/04/03 00:16:50;;;;;;;14.95;10.68;;;;;;;;;;5106099;28;20047;-45
2024/04/03 00:19:17;;;;;;;15.15;11.07;;;;;;;;;;5106213;28;20085;-45
2024/04/03 00:21:55;;;;;;;12.35;10.35;;;;;;;;;;5105874;28;20083;-43
2024/04/03 00:24:21;;;;;;;11.32;10.20;;;;;;;;;;5106216;28;20020;-47
2024/04/03 00:27:08;;;;;;;14.35;10.35;;;;;;;;;;5105980;28;20028;-50
2024/04/03 00:29:45;;;;;;;12.93;10.88;;;;;;;;;;5105795;28;20044;-47
2024/04/03 00:32:32;;;;;;;14.57;10.60;;;;;;;;;;5105991;28;20016;-42
2024/04/03 00:35:07;;;;;;;11.52;10.52;;;;;;;;;;5106084;28;20031;-48
2024/04/03 00:37:37;;;;;;;21.63;19.45;;;;;;;;;;5105728;28;20343;-49
2024/04/03 00:40:04;;;;;;;20.05;18.10;;;;;;;;;;5106195;28;20024;-47
2024/04/03 00:42:31;;;;;;;16.95;15.35;;;;;;;;;;5105712;28;20020;-42
2024/04/03 00:45:06;;;;;;;17.13;14.32;;;;;;;;;;5105838;28;20020;-46
2024/04/03 00:47:36;;;;;;;15.20;13.38;;;;;;;;;;5105735;28;20083;-44
2024/04/03 00:50:14;;;;;;;17.15;13.55;;;;;;;;;;5105115;28;20234;-41
2024/04/03 00:52:40;;;;;;;15.77;12.27;;;;;;;;;;5104884;28;20016;-47
2024/04/03 00:55:10;;;;;;;13.93;11.65;;;;;;;;;;5102712;28;20169;-53
2024/04/03 00:57:36;;;;;;;13.30;11.82;;;;;;;;;;5088116;28;20093;-52
2024/04/03 01:00:13;;;;;;;14.65;12.40;;;;;;;;;;5085505;28;20024;-45
2024/04/03 01:02:49;;;;;;;17.83;12.18;;;;;;;;;;5082371;28;20032;-49
2024/04/03 01:05:18;;;;;;;16.83;12.18;;;;;;;;;;5085296;28;20040;-44
2024/04/03 01:07:45;;;;;;;13.73;12.07;;;;;;;;;;5084945;28;20043;-48
2024/04/03 01:10:17;;;;;;;16.55;12.00;;;;;;;;;;5100674;28;20292;-50
2024/04/03 01:12:43;;;;;;;;;;;;;;;;;;5105547;28;20080;-47
2024/04/03 01:15:15;;;;;;;15.25;11.23;;;;;;;;;;5101568;28;20203;-51
2024/04/03 01:18:02;;;;;;;13.15;11.35;;;;;;;;;;5093262;28;20040;-49
2024/04/03 01:20:54;;;;;;;13.02;11.45;;;;;;;;;;5085068;28;20035;-50
2024/04/03 01:23:29;;;;;;;12.48;11.20;;;;;;;;;;5097342;28;20032;-43
2024/04/03 01:25:56;;;;;;;12.65;10.85;;;;;;;;;;5093067;28;20030;-51
2024/04/03 01:28:25;;;;;;;12.75;10.88;;;;;;;;;;5095359;28;20021;-52
2024/04/03 01:30:52;;;;;;;13.27;10.55;;;;;;;;;;5093991;28;20048;-40
2024/04/03 01:33:18;;;;;;;11.88;10.68;;;;;;;;;;5095658;28;20076;-52
2024/04/03 01:36:01;;;;;;;14.18;11.30;;;;;;;;;;5103433;28;20024;-49
2024/04/03 01:38:27;;;;;;;19.42;11.38;;;;;;;;;;5104540;28;20038;-50
2024/04/03 01:41:14;;;;;;;13.25;11.43;;;;;;;;;;5095232;28;20055;-55
2024/04/03 01:43:49;;;;;;;15.25;11.98;;;;;;;;;;5093308;28;20103;-53
2024/04/03 01:46:18;;;;;;;16.70;11.90;;;;;;;;;;5104433;28;20028;-43
2024/04/03 01:48:49;;;;;;;13.65;11.82;;;;;;;;;;5104340;28;20070;-54
2024/04/03 01:51:24;;;;;;;13.52;12.02;;;;;;;;;;5104207;28;20039;-53
2024/04/03 01:53:56;;;;;;;17.77;11.60;;;;;;;;;;5097634;28;20023;-44
2024/04/03 01:56:23;;;;;;;19.17;13.80;;;;;;;;;;5086735;28;20034;-49
2024/04/03 01:58:49;;;;;;;15.07;12.93;;;;;;;;;;5083914;28;20029;-40
2024/04/03 02:01:24;;;;;;;21.98;13.18;;;;;;;;;;5084090;28;20024;-38
2024/04/03 02:04:11;;;;;;;17.15;13.73;;;;;;;;;;5093567;28;20031;-39
2024/04/03 02:06:41;;;;;;;19.83;13.38;;;;;;;;;;5101620;28;20047;-55
2024/04/03 02:09:13;;;;;;;17.90;12.82;;;;;;;;;;5089938;28;20028;-52
2024/04/03 02:12:02;;;;;;;22.63;14.63;;;;;;;;;;5092972;28;20051;-49
2024/04/03 02:14:32;;;;;;;16.73;14.60;;;;;;;;;;5083613;28;20028;-44
2024/04/03 02:17:06;;;;;;;15.40;12.60;;;;;;;;;;5083850;28;20020;-43
2024/04/03 02:19:32;;;;;;;17.30;13.05;;;;;;;;;;5084024;28;20031;-48
2024/04/03 02:22:01;;;;;;;15.73;13.55;;;;;;;;;;5083560;28;20041;-45
2024/04/03 02:24:48;;;;;;;15.65;12.35;;;;;;;;;;5084440;28;20059;-49
2024/04/03 02:27:34;;;;;;;14.75;12.68;;;;;;;;;;5096737;28;20073;-46
2024/04/03 02:30:04;;;;;;;14.25;12.80;;;;;;;;;;5106900;28;20070;-50
2024/04/03 02:32:51;;;;;;;14.13;11.93;;;;;;;;;;5105649;28;20080;-48
2024/04/03 02:35:21;;;;;;;14.88;12.30;;;;;;;;;;5102814;28;20015;-46
2024/04/03 02:37:52;;;;;;;13.70;12.20;;;;;;;;;;5110881;28;20031;-51
2024/04/03 02:40:39;;;;;;;13.57;12.18;;;;;;;;;;5111151;28;20046;-43
2024/04/03 02:43:35;;;;;;;13.75;12.48;;;;;;;;;;5100326;28;20038;-44
2024/04/03 02:46:04;;;;;;;16.52;12.60;;;;;;;;;;5110618;28;20063;-50
2024/04/03 02:48:30;;;;;;;13.90;12.48;;;;;;;;;;5110580;28;20346;-47
2024/04/03 02:51:03;;;;;;;13.65;12.35;;;;;;;;;;5103784;28;20025;-48
2024/04/03 02:53:36;;;;;;;14.43;12.75;;;;;;;;;;5107997;28;20016;-48
2024/04/03 02:56:06;;;;;;;16.77;13.02;;;;;;;;;;5101741;28;20035;-44
2024/04/03 02:58:33;;;;;;;18.88;13.00;;;;;;;;;;5089883;28;20021;-45
2024/04/03 03:01:01;;;;;;;14.23;12.88;;;;;;;;;;5090330;28;20358;-41
2024/04/03 03:03:29;;;;;;;13.73;12.13;;;;;;;;;;5090036;28;20052;-49
2024/04/03 03:05:59;;;;;;;14.00;12.65;;;;;;;;;;5089866;28;20051;-49
2024/04/03 03:08:28;;;;;;;14.43;13.00;;;;;;;;;;5089973;28;20257;-43
2024/04/03 03:10:55;;;;;;;14.75;13.27;;;;;;;;;;5089934;28;20032;-48
2024/04/03 03:13:22;;;;;;;14.88;13.57;;;;;;;;;;5089802;28;20020;-52
2024/04/03 03:15:54;;;;;;;14.43;12.98;;;;;;;;;;5089899;28;20074;-43
2024/04/03 03:18:22;;;;;;;14.05;12.50;;;;;;;;;;5089942;28;20024;-50
2024/04/03 03:20:49;;;;;;;14.02;12.82;;;;;;;;;;5089748;28;20024;-51
2024/04/03 03:23:16;;;;;;;14.50;12.90;;;;;;;;;;5089733;28;20085;-46
2024/04/03 03:25:43;;;;;;;14.48;13.05;;;;;;;;;;5090146;28;20384;-46
2024/04/03 03:28:10;;;;;;;14.85;12.98;;;;;;;;;;5089930;28;20083;-48
2024/04/03 03:30:36;;;;;;;14.35;12.45;;;;;;;;;;5100276;28;20328;-41
2024/04/03 03:33:03;;;;;;;15.90;12.50;;;;;;;;;;5090711;28;20327;-51
2024/04/03 03:35:30;;;;;;;13.82;12.25;;;;;;;;;;5090120;28;20062;-45
2024/04/03 03:37:56;;;;;;;14.52;12.60;;;;;;;;;;5100267;28;20035;-47
2024/04/03 03:40:23;;;;;;;14.50;12.70;;;;;;;;;;5090871;28;20024;-41
2024/04/03 03:42:49;;;;;;;14.45;13.10;;;;;;;;;;5086341;28;20021;-54
2024/04/03 03:45:20;;;;;;;15.05;13.55;;;;;;;;;;5086453;28;20325;-48
2024/04/03 03:47:47;;;;;;;15.60;13.35;;;;;;;;;;5086589;28;20096;-42
2024/04/03 03:52:59;;;;;;;15.77;14.27;;;;;;;;;;5086373;28;20193;-46
2024/04/03 03:55:32;;;;;;;16.65;14.40;;;;;;;;;;5098082;28;20327;-42
2024/04/03 03:57:59;;;;;;;15.95;14.52;;;;;;;;;;5106548;28;20216;-43
2024/04/03 04:00:26;;;;;;;15.70;14.20;;;;;;;;;;5106947;28;20024;-41
2024/04/03 04:02:52;;;;;;;16.15;14.65;;;;;;;;;;5106261;28;20020;-50
2024/04/03 04:05:20;;;;;;;16.55;14.88;;;;;;;;;;5106936;28;20020;-41
2024/04/03 04:07:47;;;;;;;18.85;15.18;;;;;;;;;;5106321;28;20363;-40
2024/04/03 04:10:14;;;;;;;16.50;15.00;;;;;;;;;;5105724;28;20024;-46
2024/04/03 04:12:42;;;;;;;16.00;14.63;;;;;;;;;;5094002;28;20091;-48
2024/04/03 04:15:09;;;;;;;17.02;15.43;;;;;;;;;;5106571;28;20039;-40
2024/04/03 04:17:35;;;;;;;16.58;14.90;;;;;;;;;;5105915;28;20031;-43
2024/04/03 04:20:06;;;;;;;16.58;15.07;;;;;;;;;;5106374;28;20160;-41
2024/04/03 04:22:33;;;;;;;17.30;15.43;;;;;;;;;;5105985;28;20066;-40
2024/04/03 04:25:01;;;;;;;16.90;15.30;;;;;;;;;;5106180;28;20026;-42
2024/04/03 04:27:28;;;;;;;16.90;15.25;;;;;;;;;;5096762;28;20027;-41
2024/04/03 04:29:54;;;;;;;16.92;15.00;;;;;;;;;;5089288;28;20044;-45
2024/04/03 04:32:21;;;;;;;16.17;14.57;;;;;;;;;;5085413;28;20020;-43
2024/04/03 04:34:47;;;;;;;16.85;15.10;;;;;;;;;;5085929;28;20209;-46
2024/04/03 04:37:14;;;;;;;17.90;16.05;;;;;;;;;;5085445;28;20046;-38
2024/04/03 04:39:41;;;;;;;17.08;15.38;;;;;;;;;;5085592;28;20213;-42
2024/04/03 04:42:08;;;;;;;17.52;15.40;;;;;;;;;;5085437;28;20189;-44
2024/04/03 04:44:35;;;;;;;17.73;16.02;;;;;;;;;;5085464;28;20055;-47
2024/04/03 04:47:02;;;;;;;17.13;15.27;;;;;;;;;;5085317;28;20047;-43
2024/04/03 04:49:28;;;;;;;16.85;15.25;;;;;;;;;;5085051;28;20040;-43
2024/04/03 04:51:55;;;;;;;17.65;15.90;;;;;;;;;;5084439;28;20107;-46
2024/04/03 04:54:23;;;;;;;18.42;16.27;;;;;;;;;;5085139;28;20021;-41
2024/04/03 04:56:49;;;;;;;18.08;16.02;;;;;;;;;;5085053;28;20029;-41
2024/04/03 04:59:16;;;;;;;16.60;15.10;;;;;;;;;;5085255;28;20028;-45
2024/04/03 05:01:43;;;;;;;19.08;15.15;;;;;;;;;;5084813;28;20032;-42
2024/04/03 05:04:10;;;;;;;17.00;15.35;;;;;;;;;;5085117;28;20200;-49
2024/04/03 05:06:37;;;;;;;16.33;14.65;;;;;;;;;;5085125;28;20084;-41
2024/04/03 05:09:05;;;;;;;16.05;14.55;;;;;;;;;;5084807;28;20027;-41
2024/04/03 05:11:32;;;;;;;16.30;14.70;;;;;;;;;;5084729;28;20029;-40
2024/04/03 05:13:59;;;;;;;16.13;14.73;;;;;;;;;;5084882;28;20037;-39
2024/04/03 05:16:25;;;;;;;16.30;14.80;;;;;;;;;;5084545;28;20043;-47
2024/04/03 05:18:52;;;;;;;15.73;14.13;;;;;;;;;;5084835;28;20075;-45
2024/04/03 05:21:22;;;;;;;15.07;13.68;;;;;;;;;;5084524;28;20036;-43
2024/04/03 05:23:48;;;;;;;16.20;14.60;;;;;;;;;;5084384;28;20021;-43
2024/04/03 05:26:17;;;;;;;16.63;14.52;;;;;;;;;;5083281;28;20028;-51
2024/04/03 05:28:44;;;;;;;15.10;13.70;;;;;;;;;;5084578;28;20239;-45
2024/04/03 05:31:11;;;;;;;15.00;13.43;;;;;;;;;;5084090;28;20366;-48
2024/04/03 05:33:38;;;;;;;16.20;14.50;;;;;;;;;;5084528;28;20074;-48
2024/04/03 05:36:06;;;;;;;16.55;14.98;;;;;;;;;;5095353;28;20240;-48
2024/04/03 05:38:33;;;;;;;15.30;13.82;;;;;;;;;;5084142;28;20300;-47
2024/04/03 05:41:00;;;;;;;15.20;13.70;;;;;;;;;;5084293;28;20091;-41
2024/04/03 05:43:27;;;;;;;16.88;15.27;;;;;;;;;;5084104;28;20365;-45
2024/04/03 05:45:55;;;;;;;15.45;14.05;;;;;;;;;;5084114;28;20090;-47
2024/04/03 05:48:25;;;;;;;15.80;14.30;;;;;;;;;;5084178;28;20084;-48
2024/04/03 05:51:08;;;;;;;16.23;14.63;;;;;;;;;;5084229;28;20362;-51
2024/04/03 05:53:36;;;;;;;16.67;14.95;;;;;;;;;;5084179;28;20090;-42
2024/04/03 05:56:03;;;;;;;16.95;15.13;;;;;;;;;;5084112;28;20032;-43
2024/04/03 05:58:30;;;;;;;17.10;15.60;;;;;;;;;;5083987;28;20022;-43
2024/04/03 06:01:01;;;;;;;17.05;15.35;;;;;;;;;;5083851;28;20331;-41
2024/04/03 06:03:28;;;;;;;17.88;15.27;;;;;;;;;;5083766;28;20050;-42
2024/04/03 06:05:54;;;;;;;17.70;15.93;;;;;;;;;;5083886;28;20328;-45
2024/04/03 06:08:21;;;;;;;17.83;15.65;;;;;;;;;;5083998;28;20023;-39
2024/04/03 06:10:48;;;;;;;17.35;15.85;;;;;;;;;;5084003;28;20076;-42
2024/04/03 06:13:14;;;;;;;17.17;15.32;;;;;;;;;;5083782;28;20017;-52
2024/04/03 06:15:41;;;;;;;19.77;16.35;;;;;;;;;;5084048;28;20036;-49
2024/04/03 06:18:07;;;;;;;17.02;15.43;;;;;;;;;;5083968;28;20247;-54
2024/04/03 06:20:34;;;;;;;17.10;15.60;;;;;;;;;;5084139;28;20212;-50
2024/04/03 06:23:01;;;;;;;18.35;16.63;;;;;;;;;;5083948;28;20105;-48
2024/04/03 06:25:27;;;;;;;18.63;16.73;;;;;;;;;;5084252;28;20027;-52
2024/04/03 06:27:54;;;;;;;18.25;16.48;;;;;;;;;;5083833;28;20024;-52
2024/04/03 06:30:24;;;;;;;19.33;17.42;;;;;;;;;;5083990;28;20103;-49
2024/04/03 06:32:50;;;;;;;18.65;16.85;;;;;;;;;;5083816;28;20016;-50
2024/04/03 06:35:17;;;;;;;19.27;17.40;;;;;;;;;;5084146;28;20040;-47
2024/04/03 06:37:43;;;;;;;18.30;16.60;;;;;;;;;;5083637;28;20316;-41
2024/04/03 06:40:10;;;;;;;19.45;17.48;;;;;;;;;;5084081;28;20048;-40
2024/04/03 06:42:37;;;;;;;22.27;17.80;;;;;;;;;;5083636;28;20059;-40
2024/04/03 06:45:05;;;;;;;18.30;16.33;;;;;;;;;;5083782;28;20035;-41
2024/04/03 06:47:31;;;;;;;19.20;17.20;;;;;;;;;;5083591;28;20083;-41
2024/04/03 06:49:58;;;;;;;18.13;16.17;;;;;;;;;;5083923;28;20027;-41
2024/04/03 06:52:25;;;;;;;19.63;16.55;;;;;;;;;;5083386;28;20070;-42
2024/04/03 06:54:54;;;;;;;18.10;16.25;;;;;;;;;;5083932;28;20044;-38
2024/04/03 06:57:22;;;;;;;18.27;16.48;;;;;;;;;;5083410;28;20048;-40
2024/04/03 06:59:48;;;;;;;18.17;16.38;;;;;;;;;;5083210;28;20020;-49
2024/04/03 07:02:15;;;;;;;19.15;17.15;;;;;;;;;;5083471;28;20028;-48
2024/04/03 07:04:42;;;;;;;17.35;15.57;;;;;;;;;;5083687;28;20028;-47
2024/04/03 07:07:10;;;;;;;16.70;15.07;;;;;;;;;;5083219;28;20028;-54
2024/04/03 07:09:37;;;;;;;19.70;14.40;;;;;;;;;;5083671;28;20319;-40
2024/04/03 07:12:04;;;;;;;16.42;14.88;;;;;;;;;;5083298;28;20028;-41
2024/04/03 07:14:31;;;;;;;16.83;15.13;;;;;;;;;;5085537;28;20032;-43
2024/04/03 07:16:58;;;;;;;17.40;15.55;;;;;;;;;;5087165;28;20036;-45
2024/04/03 07:19:24;;;;;;;18.58;16.00;;;;;;;;;;5087177;28;20028;-44
2024/04/03 07:21:51;;;;;;;19.52;16.15;;;;;;;;;;5086804;28;20025;-49
2024/04/03 07:24:17;;;;;;;17.83;15.00;;;;;;;;;;5086996;28;20020;-48
2024/04/03 07:26:46;;;;;;;15.93;14.35;;;;;;;;;;5086934;28;20020;-51
2024/04/03 07:29:14;;;;;;;17.30;15.40;;;;;;;;;;5086835;28;20021;-48
2024/04/03 07:31:43;;;;;;;16.90;15.20;;;;;;;;;;5086773;28;20321;-50
2024/04/03 07:34:11;;;;;;;19.55;15.23;;;;;;;;;;5086989;28;20033;-50
2024/04/03 07:36:38;;;;;;;17.67;14.90;;;;;;;;;;5086564;28;20020;-48
2024/04/03 07:39:05;;;;;;;17.27;15.60;;;;;;;;;;5086782;28;20087;-48
2024/04/03 07:41:33;;;;;;;17.25;15.57;;;;;;;;;;5086888;28;20051;-46
2024/04/03 07:43:59;;;;;;;17.65;15.75;;;;;;;;;;5086670;28;20028;-52
2024/04/03 07:46:26;;;;;;;17.20;15.50;;;;;;;;;;5086550;28;20042;-47
2024/04/03 07:48:53;;;;;;;17.25;15.65;;;;;;;;;;5086638;28;20024;-39
2024/04/03 07:51:19;;;;;;;18.92;16.33;;;;;;;;;;5086345;28;20066;-40
2024/04/03 07:53:46;;;;;;;17.15;15.45;;;;;;;;;;5086580;28;20202;-44
2024/04/03 07:56:13;;;;;;;18.17;16.38;;;;;;;;;;5086420;28;20055;-39
2024/04/03 07:58:43;;;;;;;18.10;16.38;;;;;;;;;;5086254;28;20076;-52
2024/04/03 08:01:09;;;;;;;18.33;16.45;;;;;;;;;;5086523;28;20212;-43
2024/04/03 08:03:37;;;;;;;18.55;16.52;;;;;;;;;;5086142;28;20024;-46
2024/04/03 08:06:05;;;;;;;18.70;16.98;;;;;;;;;;5086055;28;20024;-47
2024/04/03 08:08:32;;;;;;;20.00;17.73;;;;;;;;;;5086171;28;20027;-46
2024/04/03 08:11:02;;;;;;;20.33;17.67;;;;;;;;;;5086189;28;20328;-42
2024/04/03 08:13:29;;;;;;;20.10;18.23;;;;;;;;;;5085897;28;20084;-44
2024/04/03 08:16:02;;;;;;;20.25;18.27;;;;;;;;;;5085985;28;20024;-52
2024/04/03 08:18:29;;;;;;;20.90;18.90;;;;;;;;;;5085919;28;20079;-46
2024/04/03 08:21:14;;;;;;;22.45;20.17;;;;;;;;;;5086097;28;20209;-48
2024/04/03 08:23:40;;;;;;;24.73;22.30;;;;;;;;;;5085812;28;20020;-57
2024/04/03 08:26:08;;;;;;;25.10;22.48;;;;;;;;;;5085386;28;20080;-55
2024/04/03 08:28:39;;;;;;;26.20;23.52;;;;;;;;;;5085898;28;20084;-44
2024/04/03 08:31:12;;;;;;;26.67;24.17;;;;;;;;;;5085497;28;20052;-40
2024/04/03 08:33:39;;;;;;;27.42;25.00;;;;;;;;;;5085611;28;20229;-40
2024/04/03 08:36:07;;;;;;;28.27;25.48;;;;;;;;;;5085875;28;20032;-38
2024/04/03 08:38:34;;;;;;;29.30;26.52;;;;;;;;;;5085395;28;20035;-39
2024/04/03 08:41:01;;;;;;;27.95;25.20;;;;;;;;;;5085596;28;20020;-40
2024/04/03 08:43:27;;;;;;;29.23;26.42;;;;;;;;;;5085299;28;20080;-49
2024/04/03 08:45:57;;;;;;;27.65;25.08;;;;;;;;;;5085317;28;20016;-42
2024/04/03 08:48:25;;;;;;;27.45;24.77;;;;;;;;;;5085283;28;20248;-46
2024/04/03 08:50:55;;;;;;;27.73;25.02;;;;;;;;;;5085313;28;20025;-49
2024/04/03 08:53:23;;;;;;;27.17;24.65;;;;;;;;;;5085018;28;20027;-40
2024/04/03 08:55:51;;;;;;;27.05;24.25;;;;;;;;;;5085228;28;20024;-47
2024/04/03 08:58:17;;;;;;;26.48;24.05;;;;;;;;;;5085075;28;20259;-44
2024/04/03 09:00:44;;;;;;;26.77;24.27;;;;;;;;;;5084956;28;20051;-44
2024/04/03 09:03:12;;;;;;;27.08;24.67;;;;;;;;;;5084974;28;20027;-41
2024/04/03 09:05:39;;;;;;;27.30;24.63;;;;;;;;;;5084975;28;20021;-42
2024/04/03 09:08:06;;;;;;;26.77;24.23;;;;;;;;;;5089053;28;20035;-53
2024/04/03 09:13:30;;;;;;;26.55;24.25;;;;;;;;;;5080126;28;20202;-55
2024/04/03 09:15:56;;;;;;;26.38;23.67;;;;;;;;;;5084943;28;20096;-51
2024/04/03 09:18:23;;;;;;;26.15;23.65;;;;;;;;;;5084724;28;20017;-43
2024/04/03 09:20:51;;;;;;;26.77;24.27;;;;;;;;;;5084505;28;20237;-48
2024/04/03 09:23:20;;;;;;;26.70;24.23;;;;;;;;;;5084502;28;20066;-52
2024/04/03 09:25:48;;;;;;;26.60;24.10;;;;;;;;;;5084599;28;20087;-53
2024/04/03 09:28:15;;;;;;;26.67;24.20;;;;;;;;;;5084639;28;20329;-51
2024/04/03 09:30:46;;;;;;;26.58;24.27;;;;;;;;;;5084369;28;20078;-49
2024/04/03 09:33:13;;;;;;;27.40;24.83;;;;;;;;;;5084375;28;20024;-49
2024/04/03 09:35:41;;;;;;;27.40;24.90;;;;;;;;;;5084451;28;20036;-45
2024/04/03 09:38:10;;;;;;;27.63;25.08;;;;;;;;;;5084036;28;20023;-47
2024/04/03 09:40:37;;;;;;;26.83;24.23;;;;;;;;;;5084224;28;20091;-45
2024/04/03 09:43:09;;;;;;;27.55;24.77;;;;;;;;;;5084219;28;20020;-44
2024/04/03 09:45:35;;;;;;;27.38;24.67;;;;;;;;;;5084274;28;20066;-51
2024/04/03 09:48:06;;;;;;;26.77;24.10;;;;;;;;;;5084121;28;20102;-44
2024/04/03 09:50:36;;;;;;;28.45;25.45;;;;;;;;;;5084720;28;20075;-46
2024/04/03 09:53:06;;;;;;;27.45;24.90;;;;;;;;;;5084163;28;20043;-52
2024/04/03 09:55:34;;;;;;;27.95;25.33;;;;;;;;;;5084570;28;20315;-44
2024/04/03 09:58:10;;;;;;;26.48;24.10;;;;;;;;;;5084149;28;20251;-48
2024/04/03 10:00:38;;;;;;;27.33;24.65;;;;;;;;;;5083935;28;20033;-46
2024/04/03 10:03:05;;;;;;;27.58;24.98;;;;;;;;;;5083796;28;20048;-49
2024/04/03 10:05:35;;;;;;;27.80;25.08;;;;;;;;;;5084599;28;20027;-55
2024/04/03 10:08:02;;;;;;;27.38;24.77;;;;;;;;;;5083791;28;20028;-46
2024/04/03 10:10:29;;;;;;;27.55;25.05;;;;;;;;;;5084380;28;20020;-48
2024/04/03 10:13:02;;;;;;;27.38;24.77;;;;;;;;;;5083905;28;20040;-58
2024/04/03 10:15:28;;;;;;;27.65;25.05;;;;;;;;;;5083784;28;20313;-51
2024/04/03 10:18:02;;;;;;;27.20;24.63;;;;;;;;;;5083831;28;20047;-50
2024/04/03 10:20:36;;;;;;;27.42;24.98;;;;;;;;;;5084280;28;20046;-51
2024/04/03 10:23:04;;;;;;;28.08;25.38;;;;;;;;;;5088522;28;20030;-50
2024/04/03 10:25:31;;;;;;;28.48;24.95;;;;;;;;;;5104435;28;20028;-49
2024/04/03 10:27:58;;;;;;;27.65;25.10;;;;;;;;;;5103832;28;20020;-46
2024/04/03 10:30:24;;;;;;;27.20;24.67;;;;;;;;;;5103977;28;20032;-39
2024/04/03 10:32:54;;;;;;;27.85;25.23;;;;;;;;;;5103988;28;20040;-39
2024/04/03 10:35:21;;;;;;;27.08;24.60;;;;;;;;;;5103706;28;20216;-49
2024/04/03 10:37:48;;;;;;;27.52;24.98;;;;;;;;;;5104089;28;20040;-49
2024/04/03 10:40:14;;;;;;;27.20;24.58;;;;;;;;;;5104411;28;20299;-52
2024/04/03 10:42:41;;;;;;;26.83;24.42;;;;;;;;;;5103744;28;20050;-50
2024/04/03 10:45:08;;;;;;;26.77;24.25;;;;;;;;;;5104271;28;20212;-49
2024/04/03 10:47:35;;;;;;;27.15;24.63;;;;;;;;;;5104550;28;20021;-49
2024/04/03 10:50:02;;;;;;;27.60;24.85;;;;;;;;;;5108286;28;20020;-47
2024/04/03 10:52:29;;;;;;;26.52;24.02;;;;;;;;;;5107998;28;20043;-49
2024/04/03 10:54:56;;;;;;;26.70;24.13;;;;;;;;;;5103125;28;20069;-46
2024/04/03 10:57:22;;;;;;;26.38;23.80;;;;;;;;;;5096558;28;20020;-42
2024/04/03 10:59:49;;;;;;;27.52;25.05;;;;;;;;;;5087919;28;20091;-44
2024/04/03 11:02:16;;;;;;;26.33;23.75;;;;;;;;;;5087473;28;20063;-51
2024/04/03 11:04:44;;;;;;;27.80;24.80;;;;;;;;;;5087634;28;20024;-48
2024/04/03 11:07:13;;;;;;;27.90;25.05;;;;;;;;;;5087571;28;20028;-42
2024/04/03 11:09:40;;;;;;;26.73;24.13;;;;;;;;;;5087612;28;20422;-49
2024/04/03 11:12:10;;;;;;;27.67;25.08;;;;;;;;;;5087393;28;20257;-49
2024/04/03 11:14:37;;;;;;;26.42;23.90;;;;;;;;;;5087549;28;20020;-46
2024/04/03 11:17:10;;;;;;;26.58;24.17;;;;;;;;;;5091679;28;20028;-49
2024/04/03 11:19:37;;;;;;;28.38;25.58;;;;;;;;;;5098309;28;20028;-55
2024/04/03 11:22:04;;;;;;;28.48;25.90;;;;;;;;;;5088674;28;20036;-50
2024/04/03 11:24:31;;;;;;;27.70;24.88;;;;;;;;;;5087105;28;20028;-51
2024/04/03 11:26:57;;;;;;;27.80;25.10;;;;;;;;;;5086796;28;20036;-50
2024/04/03 11:29:28;;;;;;;28.25;25.70;;;;;;;;;;5086891;28;20024;-50
2024/04/03 11:31:54;;;;;;;28.75;26.02;;;;;;;;;;5086772;28;20023;-48
2024/04/03 11:34:21;;;;;;;28.45;25.83;;;;;;;;;;5086545;28;20368;-46
2024/04/03 11:36:47;;;;;;;28.40;25.83;;;;;;;;;;5100019;28;20050;-54
2024/04/03 11:39:17;;;;;;;28.45;25.67;;;;;;;;;;5107235;28;20020;-47
2024/04/03 11:41:44;;;;;;;26.65;24.33;;;;;;;;;;5106843;28;20062;-49
2024/04/03 11:44:11;;;;;;;28.02;25.23;;;;;;;;;;5107109;28;20019;-44
2024/04/03 11:46:37;;;;;;;28.10;25.50;;;;;;;;;;5106883;28;20031;-45
2024/04/03 11:49:04;;;;;;;28.67;25.33;;;;;;;;;;5106261;28;20016;-55
2024/04/03 11:51:32;;;;;;;27.45;24.85;;;;;;;;;;5106774;28;20027;-48
2024/04/03 11:53:58;;;;;;;28.95;26.10;;;;;;;;;;5105383;28;20024;-51
2024/04/03 11:56:26;;;;;;;27.30;24.80;;;;;;;;;;5106557;28;20336;-49
2024/04/03 11:58:53;;;;;;;29.00;26.08;;;;;;;;;;5106348;28;20032;-44
2024/04/03 12:01:20;;;;;;;39.65;35.70;;;;;;;;;;5106477;28;20020;-44
2024/04/03 12:03:46;;;;;;;36.05;32.55;;;;;;;;;;5106444;28;20091;-50
2024/04/03 12:06:13;;;;;;;33.40;29.92;;;;;;;;;;5106569;28;20020;-46
2024/04/03 12:08:39;;;;;;;31.90;28.73;;;;;;;;;;5106464;28;20023;-47
2024/04/03 12:11:07;;;;;;;33.08;29.63;;;;;;;;;;5106468;28;20024;-50
2024/04/03 12:13:34;;;;;;;32.38;28.15;;;;;;;;;;5106386;28;20322;-51
2024/04/03 12:16:01;;;;;;;31.15;28.25;;;;;;;;;;5106435;28;20057;-45
2024/04/03 12:21:12;;;;;;;29.77;26.85;;;;;;;;;;5106237;28;20100;-40
2024/04/03 12:23:42;;;;;;;29.02;26.00;;;;;;;;;;5106112;28;20024;-44
2024/04/03 12:26:09;;;;;;;29.95;27.23;;;;;;;;;;5106110;28;20036;-45
2024/04/03 12:28:36;;;;;;;30.00;27.13;;;;;;;;;;5106035;28;20012;-43
2024/04/03 12:31:02;;;;;;;28.98;26.25;;;;;;;;;;5105965;28;20052;-42
2024/04/03 12:33:29;;;;;;;31.17;28.27;;;;;;;;;;5105930;28;20083;-47
2024/04/03 12:35:56;;;;;;;30.00;26.95;;;;;;;;;;5106052;28;20023;-54
2024/04/03 12:38:22;;;;;;;29.15;26.38;;;;;;;;;;5105789;28;20270;-44
2024/04/03 12:40:49;;;;;;;29.90;27.08;;;;;;;;;;5106102;28;20319;-44
2024/04/03 12:43:16;;;;;;;29.35;26.73;;;;;;;;;;5105632;28;20034;-41
2024/04/03 12:45:43;;;;;;;29.08;26.08;;;;;;;;;;5105734;28;20016;-39
2024/04/03 12:48:10;;;;;;;27.90;25.27;;;;;;;;;;5105603;28;20039;-37
2024/04/03 12:50:36;;;;;;;28.40;25.60;;;;;;;;;;5105655;28;20338;-38
2024/04/03 12:53:03;;;;;;;28.23;25.45;;;;;;;;;;5105543;28;20016;-45
2024/04/03 12:55:29;;;;;;;27.45;24.88;;;;;;;;;;5105611;28;20027;-43
2024/04/03 12:57:56;;;;;;;27.83;25.10;;;;;;;;;;5105459;28;20058;-46
2024/04/03 13:00:23;;;;;;;26.65;24.17;;;;;;;;;;5104675;28;20087;-48
2024/04/03 13:02:50;;;;;;;26.08;23.58;;;;;;;;;;5098276;28;20028;-57
2024/04/03 13:05:17;;;;;;;26.90;24.10;;;;;;;;;;5100256;28;20028;-50
2024/04/03 13:07:43;;;;;;;25.67;23.23;;;;;;;;;;5098276;28;20028;-44
2024/04/03 13:10:10;;;;;;;26.80;24.13;;;;;;;;;;5099414;28;20024;-46
2024/04/03 13:12:36;;;;;;;26.48;23.88;;;;;;;;;;5092724;28;20182;-47
2024/04/03 13:15:03;;;;;;;27.45;24.75;;;;;;;;;;5099547;28;20181;-47
2024/04/03 13:17:31;;;;;;;26.52;23.92;;;;;;;;;;5104907;28;20029;-48
2024/04/03 13:19:58;;;;;;;28.50;24.33;;;;;;;;;;5099066;28;20192;-43
2024/04/03 13:22:31;;;;;;;34.17;25.17;;;;;;;;;;5103273;28;20074;-43
2024/04/03 13:24:58;;;;;;;49.65;28.25;;;;;;;;;;5103912;28;20024;-41
2024/04/03 13:27:24;;;;;;;34.17;25.55;;;;;;;;;;5093184;28;20054;-41
2024/04/03 13:29:51;;;;;;;41.97;26.52;;;;;;;;;;5093332;28;20312;-45
2024/04/03 13:32:20;;;;;;;42.63;27.10;;;;;;;;;;5089002;28;20020;-40
2024/04/03 13:34:48;;;;;;;32.95;27.08;;;;;;;;;;5093656;28;20360;-44
2024/04/03 13:37:14;;;;;;;31.67;25.05;;;;;;;;;;5095369;28;20238;-41
2024/04/03 13:39:41;;;;;;;28.20;25.30;;;;;;;;;;5093499;28;20024;-40
2024/04/03 13:42:08;;;;;;;27.63;24.88;;;;;;;;;;5088737;28;20091;-40
2024/04/03 13:44:34;;;;;;;26.67;24.02;;;;;;;;;;5084452;28;20035;-43
2024/04/03 13:47:01;;;;;;;26.65;24.20;;;;;;;;;;5084163;28;20020;-42
2024/04/03 13:49:28;;;;;;;26.67;23.80;;;;;;;;;;5084508;28;20096;-41
2024/04/03 13:51:55;;;;;;;26.17;23.58;;;;;;;;;;5088563;28;20020;-43
2024/04/03 13:54:22;;;;;;;27.88;24.02;;;;;;;;;;5097309;28;20192;-55
2024/04/03 13:56:48;;;;;;;27.02;24.23;;;;;;;;;;5095053;28;20063;-41
2024/04/03 13:59:15;;;;;;;26.38;23.98;;;;;;;;;;5097493;28;20024;-44
2024/04/03 14:01:42;;;;;;;26.85;24.02;;;;;;;;;;5089005;28;20052;-42
2024/04/03 14:04:08;;;;;;;25.38;22.45;;;;;;;;;;5095800;28;20205;-40
2024/04/03 14:06:35;;;;;;;26.60;23.77;;;;;;;;;;5097861;28;20272;-49
2024/04/03 14:09:03;;;;;;;26.13;23.55;;;;;;;;;;5096533;28;20016;-47
2024/04/03 14:11:29;;;;;;;25.40;22.85;;;;;;;;;;5103884;28;20197;-43
2024/04/03 14:13:56;;;;;;;24.73;22.17;;;;;;;;;;5102523;28;20326;-49
2024/04/03 14:16:23;;;;;;;25.90;22.85;;;;;;;;;;5090407;28;20098;-47
2024/04/03 14:18:50;;;;;;;25.25;22.85;;;;;;;;;;5099772;28;20024;-43
2024/04/03 14:21:16;;;;;;;24.83;22.50;;;;;;;;;;5094002;28;20028;-41
2024/04/03 14:23:43;;;;;;;34.85;25.90;;;;;;;;;;5103591;28;20027;-43
2024/04/03 14:26:10;;;;;;;34.13;23.88;;;;;;;;;;5103315;28;20321;-42
2024/04/03 14:28:36;;;;;;;30.02;25.38;;;;;;;;;;5103586;28;20079;-40
2024/04/03 14:31:03;;;;;;;28.00;25.00;;;;;;;;;;5103264;28;20040;-49
2024/04/03 14:33:29;;;;;;;28.88;25.15;;;;;;;;;;5104034;28;20035;-41
2024/04/03 14:35:56;;;;;;;28.45;25.42;;;;;;;;;;5096905;28;20275;-45